Flight Track Log - Related Links

Times and Time Zones

All times are in EDT time to prevent confusion due to time zone crossing. See the ASQ4209 flight status page for this flight to view local times or setup timezone preferences in your user account.

Time Position Orientation Groundspeed Altitude Reporting Facility
EDT Latitude Longitude Course Direction KTS MPH feet Rate Location/Type
Fri 01:04:39 AM 29.9597 -95.3461 90° East 154 177 600  Level Houston Center
Fri 01:05:27 AM 29.9378 -95.3128 127° Southeast 187 215 1,800 1,347 Climbing Houston Center
Fri 01:06:17 AM 29.9111 -95.2717 127° Southeast 218 251 2,800 1,622 Climbing Houston Center
Fri 01:07:18 AM 29.8772 -95.2028 120° Southeast 245 282 4,800 1,983 Climbing Houston Center
Fri 01:08:18 AM 29.8867 -95.1186 83° East 263 303 6,800 2,000 Climbing Houston Center
Fri 01:09:00 AM 29.9833 -94.6738 90° East  Level FlightAware Approximate
Fri 01:09:18 AM 29.8981 -95.0319 81° East 270 311 8,800  Level Houston Center
Fri 01:10:00 AM 29.9834 -94.5419 90° East  Level FlightAware Approximate
Fri 01:10:19 AM 29.9114 -94.9419 80° East 279 321 10,700  Level Houston Center
Fri 01:11:19 AM 29.9236 -94.8497 81° East 287 330 11,900 1,150 Climbing Houston Center
Fri 01:12:19 AM 29.9369 -94.7456 82° East 320 368 13,000 1,050 Climbing Houston Center
Fri 01:13:19 AM 29.9511 -94.6383 81° East 336 387 14,000 1,041 Climbing Houston Center
Fri 01:14:20 AM 29.9664 -94.5281 81° East 344 396 15,100 1,091 Climbing Houston Center
Fri 01:15:20 AM 29.9839 -94.3994 81° East 357 411 16,200 1,100 Climbing Houston Center
Fri 01:16:20 AM 29.9992 -94.2828 81° East 365 420 17,300 992 Climbing Houston Center
Fri 01:17:21 AM 30.0144 -94.1653 81° East 371 427 18,200 992 Climbing Houston Center
Fri 01:18:21 AM 30.0294 -94.0444 82° East 379 436 19,300 1,050 Climbing Houston Center
Fri 01:19:21 AM 30.0442 -93.9225 82° East 384 442 20,300 1,050 Climbing Houston Center
Fri 01:20:21 AM 30.0833 -93.8089 68° East 384 442 21,400 1,041 Climbing Houston Center
Fri 01:21:22 AM 30.1492 -93.7086 53° Northeast 388 447 22,400 992 Climbing Houston Center
Fri 01:22:22 AM 30.2161 -93.6078 52° Northeast 396 456 23,400 1,050 Climbing Houston Center
Fri 01:23:22 AM 30.2789 -93.5072 54° Northeast 393 452 24,500 1,050 Climbing Houston Center
Fri 01:24:22 AM 30.3469 -93.4075 52° Northeast 412 474 25,500 992 Climbing Houston Center
Fri 01:25:23 AM 30.4139 -93.3075 52° Northeast 406 467 26,500 992 Climbing Houston Center
Fri 01:26:23 AM 30.4811 -93.2047 53° Northeast 405 466 27,500 1,050 Climbing Houston Center
Fri 01:27:23 AM 30.5483 -93.1033 52° Northeast 400 460 28,600 1,150 Climbing Houston Center
Fri 01:28:23 AM 30.6283 -92.9797 53° Northeast 400 460 29,800 1,091 Climbing Houston Center
Fri 01:29:24 AM 30.6958 -92.8767 53° Northeast 402 463 30,800 992 Climbing Houston Center
Fri 01:30:24 AM 30.7525 -92.7881 53° Northeast 401 461 31,800 1,000 Climbing Houston Center
Fri 01:31:24 AM 30.8194 -92.6847 53° Northeast 402 463 32,800 992 Climbing Houston Center
Fri 01:32:25 AM 30.8850 -92.5825 53° Northeast 398 458 33,800 942 Climbing Houston Center
Fri 01:33:25 AM 30.9522 -92.4808 52° Northeast 399 459 34,700 950 Climbing Houston Center
Fri 01:34:25 AM 31.0286 -92.3617 53° Northeast 397 457 35,700 893 Climbing Houston Center
Fri 01:35:26 AM 31.0947 -92.2583 53° Northeast 399 459 36,500 645 Climbing Houston Center
Fri 01:36:26 AM 31.1608 -92.1592 52° Northeast 390 449 37,000 250 Climbing Houston Center
Fri 01:37:26 AM 31.2297 -92.0536 53° Northeast 403 464 37,000  Level Houston Center
Fri 01:38:26 AM 31.2956 -91.9450 55° Northeast 409 471 37,000  Level Houston Center
Fri 01:39:27 AM 31.3681 -91.8328 53° Northeast 424 488 37,000  Level Houston Center
Fri 01:40:27 AM 31.4417 -91.7169 53° Northeast 439 505 37,000  Level Houston Center
Fri 01:41:27 AM 31.5158 -91.5978 54° Northeast 448 516 37,000  Level Houston Center
Fri 01:42:28 AM 31.5931 -91.4786 53° Northeast 457 526 37,000  Level Houston Center
Fri 01:43:28 AM 31.6681 -91.3567 54° Northeast 461 531 37,000  Level Houston Center
Fri 01:44:28 AM 31.7453 -91.2339 53° Northeast 466 536 37,000  Level Houston Center
Fri 01:45:29 AM 31.8203 -91.1128 54° Northeast 461 531 37,000  Level Houston Center
Fri 01:46:29 AM 31.8969 -90.9919 53° Northeast 460 529 37,000  Level Houston Center
Fri 01:47:29 AM 31.9728 -90.8703 54° Northeast 462 532 37,000  Level Houston Center
Fri 01:48:30 AM 32.0567 -90.7356 54° Northeast 460 529 37,000 -50 Level Houston Center
Fri 01:49:30 AM 32.1306 -90.6122 55° Northeast 460 529 36,900  Descending Houston Center
Fri 01:50:20 AM 32.1939 -90.5094 54° Northeast 456 525 37,000 55 Climbing Memphis Center
Fri 01:51:20 AM 32.2689 -90.3844 55° Northeast 456 525 37,000  Level Memphis Center
Fri 01:52:20 AM 32.3442 -90.2614 54° Northeast 461 531 37,000  Level Memphis Center
Fri 01:53:20 AM 32.4169 -90.1408 54° Northeast 456 525 37,000  Level Memphis Center
Fri 01:54:20 AM 32.4939 -90.0150 54° Northeast 456 525 37,000  Level Memphis Center
Fri 01:55:20 AM 32.5708 -89.8914 54° Northeast 456 525 37,000  Level Memphis Center
Fri 01:56:20 AM 32.6456 -89.7678 54° Northeast 461 531 37,000  Level Memphis Center
Fri 01:57:20 AM 32.7117 -89.6511 56° Northeast 461 531 37,000  Level Memphis Center
Fri 01:58:20 AM 32.7881 -89.5269 54° Northeast 461 531 37,000  Level Memphis Center
Fri 01:59:20 AM 32.8622 -89.4025 55° Northeast 461 531 37,000  Level Memphis Center
Fri 02:00:20 AM 32.9364 -89.2806 54° Northeast 456 525 37,000  Level Memphis Center
Fri 02:01:20 AM 33.0106 -89.1558 55° Northeast 456 525 37,000  Level Memphis Center
Fri 02:02:20 AM 33.0822 -89.0333 55° Northeast 456 525 37,000  Level Memphis Center
Fri 02:03:20 AM 33.1581 -88.9081 54° Northeast 456 525 37,000  Level Memphis Center
Fri 02:04:20 AM 33.2297 -88.7853 55° Northeast 456 525 37,000  Level Memphis Center
Fri 02:05:20 AM 33.3011 -88.6597 56° Northeast 456 525 37,000  Level Memphis Center
Fri 02:06:20 AM 33.3767 -88.5361 54° Northeast 456 525 37,000  Level Memphis Center
Fri 02:07:20 AM 33.4478 -88.4128 55° Northeast 456 525 37,000  Level Memphis Center
Fri 02:08:20 AM 33.5292 -88.2764 54° Northeast 456 525 37,000  Level Memphis Center
Fri 02:10:00 AM 33.6325 -88.0938 56° Northeast  Level FlightAware Approximate
Fri 02:11:08 AM 33.7225 -87.9250 56° Northeast 449 517 37,000  Level Atlanta Center
Fri 02:12:08 AM 33.7867 -87.8103 56° Northeast 455 524 37,000  Level Atlanta Center
Fri 02:13:08 AM 33.8614 -87.6836 55° Northeast 455 524 37,000  Level Atlanta Center
Fri 02:14:08 AM 33.9297 -87.5564 57° Northeast 455 524 37,000  Level Atlanta Center
Fri 02:14:44 AM 33.9844 -87.4639 54° Northeast 464 534 37,000  Level Memphis Center
Fri 02:17:08 AM 34.1511 -87.1689 56° Northeast 474 545 37,000  Level Atlanta Center
Fri 02:18:08 AM 34.2231 -87.0383 56° Northeast 467 537 37,000  Level Atlanta Center
Fri 02:19:08 AM 34.2972 -86.9078 55° Northeast 467 537 37,000  Level Atlanta Center
Fri 02:20:08 AM 34.3711 -86.7769 56° Northeast 467 537 37,000  Level Atlanta Center
Fri 02:21:08 AM 34.4428 -86.6483 56° Northeast 467 537 37,000  Level Atlanta Center
Fri 02:22:08 AM 34.5144 -86.5169 56° Northeast 462 532 37,000  Level Atlanta Center
Fri 02:23:08 AM 34.5881 -86.3828 56° Northeast 462 532 37,000  Level Atlanta Center
Fri 02:24:08 AM 34.6614 -86.2511 56° Northeast 467 537 37,000 -150 Level Atlanta Center
Fri 02:25:08 AM 34.7325 -86.1239 56° Northeast 467 537 36,700 -650 Descending Atlanta Center
Fri 02:26:08 AM 34.8014 -85.9942 57° Northeast 462 532 35,700 -1,200 Descending Atlanta Center
Fri 02:27:08 AM 34.8700 -85.8667 57° Northeast 457 526 34,300 -1,650 Descending Atlanta Center
Fri 02:28:08 AM 34.9431 -85.7289 57° Northeast 446 513 32,400 -2,000 Descending Atlanta Center
Fri 02:29:08 AM 35.0114 -85.6061 56° Northeast 459 528 30,300 -2,300 Descending Atlanta Center
Fri 02:30:08 AM 35.0819 -85.4728 57° Northeast 466 536 27,800 -2,500 Descending Atlanta Center
Fri 02:31:08 AM 35.1503 -85.3419 57° Northeast 466 536 25,300 -1,900 Descending Atlanta Center
Fri 02:32:08 AM 35.2225 -85.2108 56° Northeast 466 536 24,000 -650 Descending Atlanta Center
Fri 02:33:08 AM 35.2883 -85.0819 58° Northeast 454 522 24,000 -1,050 Level Atlanta Center
Fri 02:34:08 AM 35.3561 -84.9556 57° Northeast 454 522 21,900 -2,300 Descending Atlanta Center
Fri 02:35:08 AM 35.4217 -84.8289 58° Northeast 448 516 19,400 -2,400 Descending Atlanta Center
Fri 02:36:08 AM 35.4869 -84.7044 57° Northeast 443 510 17,100 -2,400 Descending Atlanta Center
Fri 02:37:08 AM 35.5481 -84.5875 57° Northeast 425 489 14,600 -2,450 Descending Atlanta Center
Fri 02:38:08 AM 35.6069 -84.4731 58° Northeast 404 465 12,200 -1,850 Descending Atlanta Center
Fri 02:39:08 AM 35.6636 -84.3683 56° Northeast 389 448 10,900 -1,100 Descending Atlanta Center
Fri 02:40:08 AM 35.7097 -84.2767 58° Northeast 349 402 10,000 -1,100 Descending Atlanta Center
Fri 02:41:08 AM 35.7578 -84.2025 51° Northeast 308 354 8,700 -1,400 Descending Atlanta Center
Fri 02:42:08 AM 35.8058 -84.1333 49° Northeast 276 318 7,200 -1,550 Descending Atlanta Center
Fri 02:43:08 AM 35.8475 -84.0747 49° Northeast 251 289 5,600 -1,600 Descending Atlanta Center

Login

Don't have an account? Register now (free) for customized features, flight alerts, and more!